sensor_id;sensor_type;location;lat;lon;timestamp;P1;durP1;ratioP1;P2;durP2;ratioP2
25331;SDS011;13284;52.748;13.452;2023-04-07T00:00:26;4.67;;;4.23;;
25331;SDS011;13284;52.748;13.452;2023-04-07T00:02:51;7.70;;;5.87;;
25331;SDS011;13284;52.748;13.452;2023-04-07T00:05:17;7.33;;;5.30;;
25331;SDS011;13284;52.748;13.452;2023-04-07T00:07:43;7.33;;;5.00;;
25331;SDS011;13284;52.748;13.452;2023-04-07T00:10:08;6.50;;;4.60;;
25331;SDS011;13284;52.748;13.452;2023-04-07T00:12:34;5.40;;;4.73;;
25331;SDS011;13284;52.748;13.452;2023-04-07T00:15:00;5.03;;;4.50;;
25331;SDS011;13284;52.748;13.452;2023-04-07T00:17:26;5.00;;;4.47;;
25331;SDS011;13284;52.748;13.452;2023-04-07T00:19:51;5.50;;;3.80;;
25331;SDS011;13284;52.748;13.452;2023-04-07T00:22:17;4.40;;;4.00;;
25331;SDS011;13284;52.748;13.452;2023-04-07T00:24:43;4.97;;;3.70;;
25331;SDS011;13284;52.748;13.452;2023-04-07T00:27:08;5.47;;;5.00;;
25331;SDS011;13284;52.748;13.452;2023-04-07T00:29:34;5.40;;;4.20;;
25331;SDS011;13284;52.748;13.452;2023-04-07T00:31:59;5.57;;;4.23;;
25331;SDS011;13284;52.748;13.452;2023-04-07T00:34:25;5.93;;;4.17;;
25331;SDS011;13284;52.748;13.452;2023-04-07T00:36:50;5.00;;;4.17;;
25331;SDS011;13284;52.748;13.452;2023-04-07T00:39:17;4.87;;;4.23;;
25331;SDS011;13284;52.748;13.452;2023-04-07T00:41:43;7.33;;;4.50;;
25331;SDS011;13284;52.748;13.452;2023-04-07T00:44:09;6.77;;;5.10;;
25331;SDS011;13284;52.748;13.452;2023-04-07T00:46:35;3.80;;;3.50;;
25331;SDS011;13284;52.748;13.452;2023-04-07T00:49:01;5.33;;;4.43;;
25331;SDS011;13284;52.748;13.452;2023-04-07T00:51:28;5.33;;;4.73;;
25331;SDS011;13284;52.748;13.452;2023-04-07T00:53:54;6.30;;;4.83;;
25331;SDS011;13284;52.748;13.452;2023-04-07T00:56:19;5.80;;;4.53;;
25331;SDS011;13284;52.748;13.452;2023-04-07T00:58:45;5.23;;;4.73;;
25331;SDS011;13284;52.748;13.452;2023-04-07T01:01:16;6.13;;;5.37;;
25331;SDS011;13284;52.748;13.452;2023-04-07T01:03:56;6.40;;;4.90;;
25331;SDS011;13284;52.748;13.452;2023-04-07T01:06:27;6.57;;;4.53;;
25331;SDS011;13284;52.748;13.452;2023-04-07T01:09:09;5.87;;;5.20;;
25331;SDS011;13284;52.748;13.452;2023-04-07T01:11:50;5.20;;;4.63;;
25331;SDS011;13284;52.748;13.452;2023-04-07T01:14:17;6.43;;;5.40;;
25331;SDS011;13284;52.748;13.452;2023-04-07T01:16:51;6.40;;;4.57;;
25331;SDS011;13284;52.748;13.452;2023-04-07T01:22:05;6.47;;;5.10;;
25331;SDS011;13284;52.748;13.452;2023-04-07T01:24:51;4.67;;;4.13;;
25331;SDS011;13284;52.748;13.452;2023-04-07T01:27:37;5.93;;;5.30;;
25331;SDS011;13284;52.748;13.452;2023-04-07T01:30:05;5.30;;;4.70;;
25331;SDS011;13284;52.748;13.452;2023-04-07T01:32:36;6.83;;;5.23;;
25331;SDS011;13284;52.748;13.452;2023-04-07T01:35:03;7.20;;;5.40;;
25331;SDS011;13284;52.748;13.452;2023-04-07T01:37:33;4.63;;;4.23;;
25331;SDS011;13284;52.748;13.452;2023-04-07T01:40:00;8.47;;;5.50;;
25331;SDS011;13284;52.748;13.452;2023-04-07T01:42:26;5.77;;;5.03;;
25331;SDS011;13284;52.748;13.452;2023-04-07T01:44:52;6.80;;;5.13;;
25331;SDS011;13284;52.748;13.452;2023-04-07T01:47:20;7.00;;;5.17;;
25331;SDS011;13284;52.748;13.452;2023-04-07T01:49:45;6.47;;;4.80;;
25331;SDS011;13284;52.748;13.452;2023-04-07T01:52:12;5.03;;;4.53;;
25331;SDS011;13284;52.748;13.452;2023-04-07T01:54:38;5.67;;;5.17;;
25331;SDS011;13284;52.748;13.452;2023-04-07T01:57:04;5.03;;;4.10;;
25331;SDS011;13284;52.748;13.452;2023-04-07T01:59:29;7.30;;;5.60;;
25331;SDS011;13284;52.748;13.452;2023-04-07T02:01:55;5.83;;;5.23;;
25331;SDS011;13284;52.748;13.452;2023-04-07T02:04:24;5.40;;;5.00;;
25331;SDS011;13284;52.748;13.452;2023-04-07T02:07:04;6.13;;;5.00;;
25331;SDS011;13284;52.748;13.452;2023-04-07T02:09:37;7.60;;;5.40;;
25331;SDS011;13284;52.748;13.452;2023-04-07T02:12:05;6.03;;;5.53;;
25331;SDS011;13284;52.748;13.452;2023-04-07T02:14:33;6.30;;;4.43;;
25331;SDS011;13284;52.748;13.452;2023-04-07T02:17:00;8.83;;;6.03;;
25331;SDS011;13284;52.748;13.452;2023-04-07T02:19:27;7.37;;;6.10;;
25331;SDS011;13284;52.748;13.452;2023-04-07T02:21:54;5.53;;;5.03;;
25331;SDS011;13284;52.748;13.452;2023-04-07T02:24:20;9.00;;;5.70;;
25331;SDS011;13284;52.748;13.452;2023-04-07T02:26:46;8.33;;;5.13;;
25331;SDS011;13284;52.748;13.452;2023-04-07T02:29:12;7.77;;;4.90;;
25331;SDS011;13284;52.748;13.452;2023-04-07T02:31:37;7.40;;;4.93;;
25331;SDS011;13284;52.748;13.452;2023-04-07T02:34:06;7.60;;;6.37;;
25331;SDS011;13284;52.748;13.452;2023-04-07T02:36:32;5.57;;;5.03;;
25331;SDS011;13284;52.748;13.452;2023-04-07T02:38:57;8.83;;;6.53;;
25331;SDS011;13284;52.748;13.452;2023-04-07T02:41:23;6.37;;;5.23;;
25331;SDS011;13284;52.748;13.452;2023-04-07T02:43:48;6.30;;;5.70;;
25331;SDS011;13284;52.748;13.452;2023-04-07T02:46:14;6.50;;;5.00;;
25331;SDS011;13284;52.748;13.452;2023-04-07T02:48:39;6.90;;;6.23;;
25331;SDS011;13284;52.748;13.452;2023-04-07T02:51:08;6.40;;;5.47;;
25331;SDS011;13284;52.748;13.452;2023-04-07T02:53:33;8.63;;;6.40;;
25331;SDS011;13284;52.748;13.452;2023-04-07T02:55:59;6.93;;;6.23;;
25331;SDS011;13284;52.748;13.452;2023-04-07T02:58:24;6.83;;;5.30;;
25331;SDS011;13284;52.748;13.452;2023-04-07T03:00:50;7.37;;;6.33;;
25331;SDS011;13284;52.748;13.452;2023-04-07T03:03:16;10.33;;;6.23;;
25331;SDS011;13284;52.748;13.452;2023-04-07T03:05:41;8.17;;;5.93;;
25331;SDS011;13284;52.748;13.452;2023-04-07T03:08:07;10.17;;;6.50;;
25331;SDS011;13284;52.748;13.452;2023-04-07T03:10:32;8.40;;;6.97;;
25331;SDS011;13284;52.748;13.452;2023-04-07T03:12:58;9.60;;;7.17;;
25331;SDS011;13284;52.748;13.452;2023-04-07T03:15:28;8.10;;;6.17;;
25331;SDS011;13284;52.748;13.452;2023-04-07T03:17:54;7.33;;;6.50;;
25331;SDS011;13284;52.748;13.452;2023-04-07T03:20:20;8.27;;;6.27;;
25331;SDS011;13284;52.748;13.452;2023-04-07T03:22:45;10.47;;;7.10;;
25331;SDS011;13284;52.748;13.452;2023-04-07T03:25:11;7.63;;;6.80;;
25331;SDS011;13284;52.748;13.452;2023-04-07T03:27:37;10.37;;;7.33;;
25331;SDS011;13284;52.748;13.452;2023-04-07T03:30:03;9.68;;;7.78;;
25331;SDS011;13284;52.748;13.452;2023-04-07T03:32:29;9.27;;;7.40;;
25331;SDS011;13284;52.748;13.452;2023-04-07T03:34:55;8.30;;;7.10;;
25331;SDS011;13284;52.748;13.452;2023-04-07T03:37:21;10.27;;;7.93;;
25331;SDS011;13284;52.748;13.452;2023-04-07T03:39:46;9.40;;;8.37;;
25331;SDS011;13284;52.748;13.452;2023-04-07T03:42:14;8.73;;;7.17;;
25331;SDS011;13284;52.748;13.452;2023-04-07T03:44:40;9.03;;;6.93;;
25331;SDS011;13284;52.748;13.452;2023-04-07T03:47:05;13.67;;;9.07;;
25331;SDS011;13284;52.748;13.452;2023-04-07T03:49:31;9.93;;;8.47;;
25331;SDS011;13284;52.748;13.452;2023-04-07T03:51:57;9.93;;;7.53;;
25331;SDS011;13284;52.748;13.452;2023-04-07T03:54:22;9.70;;;7.10;;
25331;SDS011;13284;52.748;13.452;2023-04-07T03:56:48;9.17;;;8.27;;
25331;SDS011;13284;52.748;13.452;2023-04-07T03:59:16;11.97;;;8.97;;
25331;SDS011;13284;52.748;13.452;2023-04-07T04:01:41;8.80;;;7.53;;
25331;SDS011;13284;52.748;13.452;2023-04-07T04:04:07;11.33;;;9.03;;
25331;SDS011;13284;52.748;13.452;2023-04-07T04:06:32;12.07;;;9.30;;
25331;SDS011;13284;52.748;13.452;2023-04-07T04:08:58;12.53;;;9.00;;
25331;SDS011;13284;52.748;13.452;2023-04-07T04:11:24;13.80;;;8.23;;
25331;SDS011;13284;52.748;13.452;2023-04-07T04:13:50;9.30;;;7.57;;
25331;SDS011;13284;52.748;13.452;2023-04-07T04:16:15;11.23;;;7.73;;
25331;SDS011;13284;52.748;13.452;2023-04-07T04:18:41;12.00;;;9.00;;
25331;SDS011;13284;52.748;13.452;2023-04-07T04:21:07;11.37;;;9.10;;
25331;SDS011;13284;52.748;13.452;2023-04-07T04:23:33;10.03;;;8.20;;
25331;SDS011;13284;52.748;13.452;2023-04-07T04:25:58;11.17;;;8.80;;
25331;SDS011;13284;52.748;13.452;2023-04-07T04:28:27;9.80;;;8.50;;
25331;SDS011;13284;52.748;13.452;2023-04-07T04:30:53;10.20;;;8.13;;
25331;SDS011;13284;52.748;13.452;2023-04-07T04:33:19;10.80;;;8.30;;
25331;SDS011;13284;52.748;13.452;2023-04-07T04:35:45;10.80;;;9.03;;
25331;SDS011;13284;52.748;13.452;2023-04-07T04:38:11;8.87;;;7.97;;
25331;SDS011;13284;52.748;13.452;2023-04-07T04:40:39;9.97;;;8.97;;
25331;SDS011;13284;52.748;13.452;2023-04-07T04:43:05;10.87;;;8.00;;
25331;SDS011;13284;52.748;13.452;2023-04-07T04:45:31;10.87;;;8.37;;
25331;SDS011;13284;52.748;13.452;2023-04-07T04:47:57;9.60;;;7.70;;
25331;SDS011;13284;52.748;13.452;2023-04-07T04:50:25;10.67;;;7.13;;
25331;SDS011;13284;52.748;13.452;2023-04-07T04:52:51;11.13;;;8.13;;
25331;SDS011;13284;52.748;13.452;2023-04-07T04:55:16;10.50;;;7.50;;
25331;SDS011;13284;52.748;13.452;2023-04-07T04:57:42;8.30;;;7.50;;
25331;SDS011;13284;52.748;13.452;2023-04-07T05:00:10;10.43;;;8.53;;
25331;SDS011;13284;52.748;13.452;2023-04-07T05:02:36;11.10;;;8.60;;
25331;SDS011;13284;52.748;13.452;2023-04-07T05:05:02;8.30;;;7.23;;
25331;SDS011;13284;52.748;13.452;2023-04-07T05:07:28;10.47;;;7.60;;
25331;SDS011;13284;52.748;13.452;2023-04-07T05:10:01;11.27;;;8.47;;
25331;SDS011;13284;52.748;13.452;2023-04-07T05:12:26;8.97;;;7.60;;
25331;SDS011;13284;52.748;13.452;2023-04-07T05:14:52;11.93;;;8.17;;
25331;SDS011;13284;52.748;13.452;2023-04-07T05:17:17;9.17;;;7.90;;
25331;SDS011;13284;52.748;13.452;2023-04-07T05:19:43;9.00;;;7.83;;
25331;SDS011;13284;52.748;13.452;2023-04-07T05:22:08;9.03;;;8.13;;
25331;SDS011;13284;52.748;13.452;2023-04-07T05:24:34;11.57;;;7.80;;
25331;SDS011;13284;52.748;13.452;2023-04-07T05:27:00;10.50;;;8.77;;
25331;SDS011;13284;52.748;13.452;2023-04-07T05:29:28;8.80;;;6.57;;
25331;SDS011;13284;52.748;13.452;2023-04-07T05:32:01;13.87;;;8.40;;
25331;SDS011;13284;52.748;13.452;2023-04-07T05:34:26;11.40;;;7.03;;
25331;SDS011;13284;52.748;13.452;2023-04-07T05:36:52;8.57;;;7.70;;
25331;SDS011;13284;52.748;13.452;2023-04-07T05:39:17;11.70;;;7.20;;
25331;SDS011;13284;52.748;13.452;2023-04-07T05:41:43;8.97;;;6.93;;
25331;SDS011;13284;52.748;13.452;2023-04-07T05:44:09;8.97;;;7.40;;
25331;SDS011;13284;52.748;13.452;2023-04-07T05:46:34;11.83;;;9.00;;
25331;SDS011;13284;52.748;13.452;2023-04-07T05:49:00;11.13;;;7.27;;
25331;SDS011;13284;52.748;13.452;2023-04-07T05:51:26;12.27;;;8.60;;
25331;SDS011;13284;52.748;13.452;2023-04-07T05:53:51;8.17;;;7.27;;
25331;SDS011;13284;52.748;13.452;2023-04-07T05:56:17;12.00;;;7.93;;
25331;SDS011;13284;52.748;13.452;2023-04-07T05:58:42;9.20;;;6.93;;
25331;SDS011;13284;52.748;13.452;2023-04-07T06:01:08;11.07;;;6.77;;
25331;SDS011;13284;52.748;13.452;2023-04-07T06:03:33;11.23;;;8.30;;
25331;SDS011;13284;52.748;13.452;2023-04-07T06:05:59;11.83;;;8.37;;
25331;SDS011;13284;52.748;13.452;2023-04-07T06:08:25;9.07;;;7.50;;
25331;SDS011;13284;52.748;13.452;2023-04-07T06:10:51;13.07;;;8.20;;
25331;SDS011;13284;52.748;13.452;2023-04-07T06:13:16;13.27;;;8.30;;
25331;SDS011;13284;52.748;13.452;2023-04-07T06:15:42;9.47;;;7.53;;
25331;SDS011;13284;52.748;13.452;2023-04-07T06:18:07;12.73;;;8.37;;
25331;SDS011;13284;52.748;13.452;2023-04-07T06:20:33;10.70;;;7.97;;
25331;SDS011;13284;52.748;13.452;2023-04-07T06:22:59;10.97;;;7.70;;
25331;SDS011;13284;52.748;13.452;2023-04-07T06:25:25;11.20;;;6.53;;
25331;SDS011;13284;52.748;13.452;2023-04-07T06:27:50;8.37;;;7.57;;
25331;SDS011;13284;52.748;13.452;2023-04-07T06:30:17;10.10;;;7.53;;
25331;SDS011;13284;52.748;13.452;2023-04-07T06:32:43;9.30;;;7.80;;
25331;SDS011;13284;52.748;13.452;2023-04-07T06:35:08;9.80;;;8.03;;
25331;SDS011;13284;52.748;13.452;2023-04-07T06:37:33;12.50;;;7.90;;
25331;SDS011;13284;52.748;13.452;2023-04-07T06:39:59;9.60;;;8.60;;
25331;SDS011;13284;52.748;13.452;2023-04-07T06:42:25;10.77;;;8.50;;
25331;SDS011;13284;52.748;13.452;2023-04-07T06:44:50;10.60;;;8.47;;
25331;SDS011;13284;52.748;13.452;2023-04-07T06:47:17;10.20;;;6.90;;
25331;SDS011;13284;52.748;13.452;2023-04-07T06:49:42;9.03;;;7.67;;
25331;SDS011;13284;52.748;13.452;2023-04-07T06:52:08;9.27;;;7.50;;
25331;SDS011;13284;52.748;13.452;2023-04-07T06:54:33;12.07;;;7.70;;
25331;SDS011;13284;52.748;13.452;2023-04-07T06:57:06;10.20;;;7.40;;
25331;SDS011;13284;52.748;13.452;2023-04-07T06:59:36;10.33;;;6.60;;
25331;SDS011;13284;52.748;13.452;2023-04-07T07:02:02;12.10;;;8.13;;
25331;SDS011;13284;52.748;13.452;2023-04-07T07:04:28;12.90;;;8.17;;
25331;SDS011;13284;52.748;13.452;2023-04-07T07:06:53;7.30;;;6.60;;
25331;SDS011;13284;52.748;13.452;2023-04-07T07:09:20;11.13;;;7.53;;
25331;SDS011;13284;52.748;13.452;2023-04-07T07:11:45;9.20;;;7.60;;
25331;SDS011;13284;52.748;13.452;2023-04-07T07:14:11;9.83;;;7.17;;
25331;SDS011;13284;52.748;13.452;2023-04-07T07:16:37;8.57;;;6.80;;
25331;SDS011;13284;52.748;13.452;2023-04-07T07:19:02;10.77;;;7.93;;
25331;SDS011;13284;52.748;13.452;2023-04-07T07:21:28;9.90;;;6.47;;
25331;SDS011;13284;52.748;13.452;2023-04-07T07:23:54;8.43;;;6.50;;
25331;SDS011;13284;52.748;13.452;2023-04-07T07:26:19;10.90;;;6.90;;
25331;SDS011;13284;52.748;13.452;2023-04-07T07:28:45;8.40;;;7.20;;
25331;SDS011;13284;52.748;13.452;2023-04-07T07:31:11;8.60;;;7.07;;
25331;SDS011;13284;52.748;13.452;2023-04-07T07:33:38;8.30;;;7.23;;
25331;SDS011;13284;52.748;13.452;2023-04-07T07:36:05;8.83;;;6.60;;
25331;SDS011;13284;52.748;13.452;2023-04-07T07:38:31;8.13;;;5.80;;
25331;SDS011;13284;52.748;13.452;2023-04-07T07:40:56;8.57;;;6.50;;
25331;SDS011;13284;52.748;13.452;2023-04-07T07:43:22;8.23;;;5.63;;
25331;SDS011;13284;52.748;13.452;2023-04-07T07:45:47;10.47;;;6.00;;
25331;SDS011;13284;52.748;13.452;2023-04-07T07:48:13;7.40;;;5.47;;
25331;SDS011;13284;52.748;13.452;2023-04-07T07:50:38;9.13;;;5.50;;
25331;SDS011;13284;52.748;13.452;2023-04-07T07:53:04;7.07;;;5.10;;
25331;SDS011;13284;52.748;13.452;2023-04-07T07:55:30;9.20;;;5.70;;
25331;SDS011;13284;52.748;13.452;2023-04-07T07:57:55;6.53;;;5.33;;
25331;SDS011;13284;52.748;13.452;2023-04-07T08:00:21;7.37;;;5.57;;
25331;SDS011;13284;52.748;13.452;2023-04-07T08:02:47;8.77;;;5.97;;
25331;SDS011;13284;52.748;13.452;2023-04-07T08:05:13;5.73;;;5.03;;
25331;SDS011;13284;52.748;13.452;2023-04-07T08:07:39;7.83;;;5.20;;
25331;SDS011;13284;52.748;13.452;2023-04-07T08:10:07;8.87;;;5.50;;
25331;SDS011;13284;52.748;13.452;2023-04-07T08:12:32;8.70;;;6.20;;
25331;SDS011;13284;52.748;13.452;2023-04-07T08:14:58;7.07;;;5.07;;
25331;SDS011;13284;52.748;13.452;2023-04-07T08:17:24;9.07;;;6.00;;
25331;SDS011;13284;52.748;13.452;2023-04-07T08:19:50;5.60;;;4.43;;
25331;SDS011;13284;52.748;13.452;2023-04-07T08:22:15;6.50;;;4.63;;
25331;SDS011;13284;52.748;13.452;2023-04-07T08:24:43;5.73;;;4.70;;
25331;SDS011;13284;52.748;13.452;2023-04-07T08:27:09;6.70;;;5.00;;
25331;SDS011;13284;52.748;13.452;2023-04-07T08:29:35;7.20;;;5.10;;
25331;SDS011;13284;52.748;13.452;2023-04-07T08:32:00;8.50;;;4.67;;
25331;SDS011;13284;52.748;13.452;2023-04-07T08:34:26;6.23;;;4.53;;
25331;SDS011;13284;52.748;13.452;2023-04-07T08:36:51;4.30;;;3.70;;
25331;SDS011;13284;52.748;13.452;2023-04-07T08:39:17;5.27;;;4.37;;
25331;SDS011;13284;52.748;13.452;2023-04-07T08:41:43;5.93;;;4.70;;
25331;SDS011;13284;52.748;13.452;2023-04-07T08:44:11;6.80;;;4.43;;
25331;SDS011;13284;52.748;13.452;2023-04-07T08:46:39;4.50;;;4.10;;
25331;SDS011;13284;52.748;13.452;2023-04-07T08:49:07;8.53;;;4.27;;
25331;SDS011;13284;52.748;13.452;2023-04-07T08:51:34;8.17;;;4.90;;
25331;SDS011;13284;52.748;13.452;2023-04-07T08:54:05;6.80;;;3.87;;
25331;SDS011;13284;52.748;13.452;2023-04-07T08:56:36;4.37;;;3.53;;
25331;SDS011;13284;52.748;13.452;2023-04-07T08:59:04;5.17;;;3.57;;
25331;SDS011;13284;52.748;13.452;2023-04-07T09:01:31;6.37;;;4.30;;
25331;SDS011;13284;52.748;13.452;2023-04-07T09:04:00;4.07;;;3.67;;
25331;SDS011;13284;52.748;13.452;2023-04-07T09:06:28;5.33;;;4.27;;
25331;SDS011;13284;52.748;13.452;2023-04-07T09:08:55;4.50;;;4.10;;
25331;SDS011;13284;52.748;13.452;2023-04-07T09:11:25;5.90;;;4.17;;
25331;SDS011;13284;52.748;13.452;2023-04-07T09:13:52;7.57;;;4.33;;
25331;SDS011;13284;52.748;13.452;2023-04-07T09:16:18;5.20;;;3.70;;
25331;SDS011;13284;52.748;13.452;2023-04-07T09:18:44;7.37;;;3.60;;
25331;SDS011;13284;52.748;13.452;2023-04-07T09:21:31;6.50;;;3.73;;
25331;SDS011;13284;52.748;13.452;2023-04-07T09:27:10;5.53;;;4.33;;
25331;SDS011;13284;52.748;13.452;2023-04-07T09:29:46;4.93;;;3.60;;
25331;SDS011;13284;52.748;13.452;2023-04-07T09:35:12;5.13;;;4.13;;
25331;SDS011;13284;52.748;13.452;2023-04-07T09:37:47;4.27;;;3.60;;
25331;SDS011;13284;52.748;13.452;2023-04-07T09:40:45;4.87;;;3.60;;
25331;SDS011;13284;52.748;13.452;2023-04-07T09:43:18;4.23;;;3.73;;
25331;SDS011;13284;52.748;13.452;2023-04-07T09:45:44;4.97;;;3.90;;
25331;SDS011;13284;52.748;13.452;2023-04-07T09:48:18;6.50;;;3.77;;
25331;SDS011;13284;52.748;13.452;2023-04-07T09:50:47;4.47;;;4.07;;
25331;SDS011;13284;52.748;13.452;2023-04-07T09:53:40;4.47;;;4.07;;
25331;SDS011;13284;52.748;13.452;2023-04-07T09:56:21;5.17;;;4.23;;
25331;SDS011;13284;52.748;13.452;2023-04-07T09:58:51;5.10;;;4.10;;
25331;SDS011;13284;52.748;13.452;2023-04-07T10:01:24;6.17;;;4.93;;
25331;SDS011;13284;52.748;13.452;2023-04-07T10:03:50;5.50;;;4.03;;
25331;SDS011;13284;52.748;13.452;2023-04-07T10:06:19;6.10;;;5.17;;
25331;SDS011;13284;52.748;13.452;2023-04-07T10:08:45;4.67;;;4.23;;
25331;SDS011;13284;52.748;13.452;2023-04-07T10:11:11;4.90;;;4.27;;
25331;SDS011;13284;52.748;13.452;2023-04-07T10:13:38;6.20;;;4.97;;
25331;SDS011;13284;52.748;13.452;2023-04-07T10:16:05;9.33;;;5.80;;
25331;SDS011;13284;52.748;13.452;2023-04-07T10:18:41;6.80;;;5.80;;
25331;SDS011;13284;52.748;13.452;2023-04-07T10:21:07;7.10;;;5.03;;
25331;SDS011;13284;52.748;13.452;2023-04-07T10:26:43;7.00;;;5.80;;
25331;SDS011;13284;52.748;13.452;2023-04-07T10:29:15;9.00;;;6.27;;
25331;SDS011;13284;52.748;13.452;2023-04-07T10:31:45;6.23;;;5.63;;
25331;SDS011;13284;52.748;13.452;2023-04-07T10:34:13;8.67;;;7.30;;
25331;SDS011;13284;52.748;13.452;2023-04-07T10:39:37;12.00;;;7.17;;
25331;SDS011;13284;52.748;13.452;2023-04-07T10:42:03;8.80;;;6.07;;
25331;SDS011;13284;52.748;13.452;2023-04-07T10:45:02;11.63;;;7.23;;
25331;SDS011;13284;52.748;13.452;2023-04-07T10:47:22;8.00;;;5.40;;
25331;SDS011;13284;52.748;13.452;2023-04-07T10:52:39;8.13;;;6.07;;
25331;SDS011;13284;52.748;13.452;2023-04-07T11:00:39;8.40;;;6.43;;
25331;SDS011;13284;52.748;13.452;2023-04-07T11:03:11;9.40;;;6.80;;
25331;SDS011;13284;52.748;13.452;2023-04-07T11:05:38;13.10;;;6.63;;
25331;SDS011;13284;52.748;13.452;2023-04-07T11:08:04;11.13;;;7.63;;
25331;SDS011;13284;52.748;13.452;2023-04-07T11:10:31;11.43;;;7.47;;
25331;SDS011;13284;52.748;13.452;2023-04-07T11:13:09;7.87;;;6.13;;
25331;SDS011;13284;52.748;13.452;2023-04-07T11:15:35;9.87;;;5.63;;
25331;SDS011;13284;52.748;13.452;2023-04-07T11:18:15;6.50;;;4.63;;
25331;SDS011;13284;52.748;13.452;2023-04-07T11:20:50;6.47;;;5.60;;
25331;SDS011;13284;52.748;13.452;2023-04-07T11:23:17;7.27;;;5.33;;
25331;SDS011;13284;52.748;13.452;2023-04-07T11:25:45;6.93;;;5.53;;
25331;SDS011;13284;52.748;13.452;2023-04-07T11:28:13;9.07;;;6.00;;
25331;SDS011;13284;52.748;13.452;2023-04-07T11:30:43;6.80;;;4.97;;
25331;SDS011;13284;52.748;13.452;2023-04-07T11:33:20;8.47;;;5.60;;
25331;SDS011;13284;52.748;13.452;2023-04-07T11:35:56;6.90;;;5.00;;
25331;SDS011;13284;52.748;13.452;2023-04-07T11:38:24;6.03;;;4.20;;
25331;SDS011;13284;52.748;13.452;2023-04-07T11:40:54;4.63;;;4.20;;
25331;SDS011;13284;52.748;13.452;2023-04-07T11:43:24;4.43;;;3.80;;
25331;SDS011;13284;52.748;13.452;2023-04-07T11:46:04;7.83;;;4.27;;
25331;SDS011;13284;52.748;13.452;2023-04-07T11:48:35;4.90;;;3.93;;
25331;SDS011;13284;52.748;13.452;2023-04-07T11:51:03;6.17;;;4.70;;
25331;SDS011;13284;52.748;13.452;2023-04-07T11:53:33;5.83;;;4.47;;
25331;SDS011;13284;52.748;13.452;2023-04-07T11:56:08;5.77;;;4.23;;
25331;SDS011;13284;52.748;13.452;2023-04-07T11:58:45;7.10;;;4.20;;
25331;SDS011;13284;52.748;13.452;2023-04-07T12:01:18;4.87;;;3.90;;
25331;SDS011;13284;52.748;13.452;2023-04-07T12:03:54;4.97;;;3.50;;
25331;SDS011;13284;52.748;13.452;2023-04-07T12:06:33;4.20;;;3.23;;
25331;SDS011;13284;52.748;13.452;2023-04-07T12:09:03;6.80;;;4.23;;
25331;SDS011;13284;52.748;13.452;2023-04-07T12:11:29;3.80;;;3.40;;
25331;SDS011;13284;52.748;13.452;2023-04-07T12:13:55;4.17;;;3.10;;
25331;SDS011;13284;52.748;13.452;2023-04-07T12:16:22;4.47;;;3.30;;
25331;SDS011;13284;52.748;13.452;2023-04-07T12:18:48;5.67;;;4.07;;
25331;SDS011;13284;52.748;13.452;2023-04-07T12:21:15;5.00;;;3.77;;
25331;SDS011;13284;52.748;13.452;2023-04-07T12:23:41;5.30;;;3.40;;
25331;SDS011;13284;52.748;13.452;2023-04-07T12:26:07;7.50;;;4.43;;
25331;SDS011;13284;52.748;13.452;2023-04-07T12:28:33;6.30;;;3.97;;
25331;SDS011;13284;52.748;13.452;2023-04-07T12:30:58;6.23;;;3.63;;
25331;SDS011;13284;52.748;13.452;2023-04-07T12:33:24;4.37;;;3.40;;
25331;SDS011;13284;52.748;13.452;2023-04-07T12:35:49;4.17;;;3.67;;
25331;SDS011;13284;52.748;13.452;2023-04-07T12:38:15;5.00;;;3.67;;
25331;SDS011;13284;52.748;13.452;2023-04-07T12:40:41;5.33;;;3.40;;
25331;SDS011;13284;52.748;13.452;2023-04-07T12:43:07;4.00;;;3.30;;
25331;SDS011;13284;52.748;13.452;2023-04-07T12:45:32;3.80;;;2.90;;
25331;SDS011;13284;52.748;13.452;2023-04-07T12:47:58;8.70;;;3.80;;
25331;SDS011;13284;52.748;13.452;2023-04-07T12:50:23;5.00;;;4.07;;
25331;SDS011;13284;52.748;13.452;2023-04-07T12:52:49;5.23;;;3.80;;
25331;SDS011;13284;52.748;13.452;2023-04-07T12:55:19;6.87;;;4.00;;
25331;SDS011;13284;52.748;13.452;2023-04-07T12:57:45;5.40;;;3.93;;
25331;SDS011;13284;52.748;13.452;2023-04-07T13:00:11;5.33;;;3.80;;
25331;SDS011;13284;52.748;13.452;2023-04-07T13:02:37;6.37;;;4.07;;
25331;SDS011;13284;52.748;13.452;2023-04-07T13:05:02;4.70;;;3.50;;
25331;SDS011;13284;52.748;13.452;2023-04-07T13:07:28;5.67;;;4.10;;
25331;SDS011;13284;52.748;13.452;2023-04-07T13:09:54;4.77;;;3.80;;
25331;SDS011;13284;52.748;13.452;2023-04-07T13:12:21;5.57;;;3.70;;
25331;SDS011;13284;52.748;13.452;2023-04-07T13:14:46;5.83;;;3.47;;
25331;SDS011;13284;52.748;13.452;2023-04-07T13:17:12;3.10;;;2.47;;
25331;SDS011;13284;52.748;13.452;2023-04-07T13:19:38;3.60;;;3.27;;
25331;SDS011;13284;52.748;13.452;2023-04-07T13:22:04;6.23;;;3.30;;
25331;SDS011;13284;52.748;13.452;2023-04-07T13:24:30;5.20;;;2.80;;
25331;SDS011;13284;52.748;13.452;2023-04-07T13:26:55;5.07;;;3.20;;
25331;SDS011;13284;52.748;13.452;2023-04-07T13:29:21;4.03;;;3.07;;
25331;SDS011;13284;52.748;13.452;2023-04-07T13:31:47;4.63;;;3.03;;
25331;SDS011;13284;52.748;13.452;2023-04-07T13:34:13;4.40;;;3.37;;
25331;SDS011;13284;52.748;13.452;2023-04-07T13:36:39;5.47;;;3.27;;
25331;SDS011;13284;52.748;13.452;2023-04-07T13:39:05;4.00;;;2.90;;
25331;SDS011;13284;52.748;13.452;2023-04-07T13:41:31;4.73;;;3.03;;
25331;SDS011;13284;52.748;13.452;2023-04-07T13:43:56;4.90;;;2.60;;
25331;SDS011;13284;52.748;13.452;2023-04-07T13:46:22;5.47;;;3.43;;
25331;SDS011;13284;52.748;13.452;2023-04-07T13:48:48;4.23;;;3.03;;
25331;SDS011;13284;52.748;13.452;2023-04-07T13:51:15;3.30;;;2.63;;
25331;SDS011;13284;52.748;13.452;2023-04-07T13:53:40;4.37;;;2.70;;
25331;SDS011;13284;52.748;13.452;2023-04-07T13:56:06;3.90;;;3.13;;
25331;SDS011;13284;52.748;13.452;2023-04-07T13:58:33;4.30;;;2.63;;
25331;SDS011;13284;52.748;13.452;2023-04-07T14:00:59;3.57;;;2.77;;
25331;SDS011;13284;52.748;13.452;2023-04-07T14:03:24;4.33;;;2.97;;
25331;SDS011;13284;52.748;13.452;2023-04-07T14:05:50;2.37;;;2.17;;
25331;SDS011;13284;52.748;13.452;2023-04-07T14:08:15;2.73;;;2.53;;
25331;SDS011;13284;52.748;13.452;2023-04-07T14:10:42;3.30;;;2.20;;
25331;SDS011;13284;52.748;13.452;2023-04-07T14:13:08;3.23;;;2.27;;
25331;SDS011;13284;52.748;13.452;2023-04-07T14:15:34;4.70;;;2.50;;
25331;SDS011;13284;52.748;13.452;2023-04-07T14:18:00;4.07;;;2.87;;
25331;SDS011;13284;52.748;13.452;2023-04-07T14:20:25;3.30;;;2.53;;
25331;SDS011;13284;52.748;13.452;2023-04-07T14:22:51;5.13;;;2.73;;
25331;SDS011;13284;52.748;13.452;2023-04-07T14:25:17;3.13;;;2.83;;
25331;SDS011;13284;52.748;13.452;2023-04-07T14:27:45;3.37;;;2.13;;
25331;SDS011;13284;52.748;13.452;2023-04-07T14:30:11;3.27;;;2.10;;
25331;SDS011;13284;52.748;13.452;2023-04-07T14:32:36;3.30;;;2.73;;
25331;SDS011;13284;52.748;13.452;2023-04-07T14:35:02;3.30;;;2.70;;
25331;SDS011;13284;52.748;13.452;2023-04-07T14:37:30;3.63;;;3.27;;
25331;SDS011;13284;52.748;13.452;2023-04-07T14:39:56;3.93;;;3.00;;
25331;SDS011;13284;52.748;13.452;2023-04-07T14:42:22;2.90;;;2.60;;
25331;SDS011;13284;52.748;13.452;2023-04-07T14:44:48;3.60;;;2.90;;
25331;SDS011;13284;52.748;13.452;2023-04-07T14:47:13;2.90;;;2.60;;
25331;SDS011;13284;52.748;13.452;2023-04-07T14:49:39;2.83;;;2.63;;
25331;SDS011;13284;52.748;13.452;2023-04-07T14:52:05;3.77;;;2.47;;
25331;SDS011;13284;52.748;13.452;2023-04-07T14:54:31;3.37;;;2.60;;